Latest Coastal Weather Observations for Yamba

IDN60701

Issued at 3:35 pm EST Friday 25 April 2014 (issued every 10 minutes, with the page automatically refreshed every 10 minutes)

About coastal observations | Map of coastal stations | Coastal observations for NSW | Marine services | Other Formats
Station Details ID: 058012 Name: YAMBA PILOT STATION Lat: -29.43 Lon: 153.36 Height: 27.4 m
Data from the previous 72 hours. | See also: Recent months at Yamba
Date/Time
EST
Temp

°C
Wind Pressure Rain
since 9am
mm
Weather Cloud Vis
km
Sea
Height
m
Swell
Dir
 
Speed
knots
Gust
knots
hPa Trend Height
m
Period
s
Dir
25/03:30pm 23.9 E 4 5 1017.5 - 0.0 - - - - - - -
25/03:00pm 24.0 E 5 7 1017.1 F 0.0 Fine Partly cloudy 35 1 0.5 8 E
25/02:30pm 23.8 E 7 10 1017.4 - 0.0 - - - - - - -
25/02:00pm 22.7 E 13 16 1017.7 - 0.0 - - - - - - -
25/01:30pm 23.0 ESE 16 22 1018.0 - 0.0 - - - - - - -
25/01:00pm 23.2 ESE 19 25 1018.2 - 0.0 - - - - - - -
25/12:30pm 23.4 SE 17 22 1018.8 - 0.0 - - - - - - -
25/12:15pm 23.5 SSE 15 25 1019.0 - 0.0 - - - - - - -
25/12:00pm 24.7 SE 12 16 1018.9 - 0.0 - - - - - - -
25/11:30am 24.5 SE 11 14 1019.2 - 0.0 - - - - - - -
25/11:00am 24.8 SSE 11 15 1019.5 - 0.0 - - - - - - -
25/10:30am 23.2 SSE 10 14 1019.6 - 0.0 - - - - - - -
25/10:00am 23.2 SE 8 11 1019.5 - 0.0 - - - - - - -
25/09:30am 21.9 SSW 7 13 1019.6 - 0.0 - - - - - - -
25/09:00am 21.6 W 5 6 1019.0 R 0.0 Fine Mostly clear 30 1 0.5 8 E
25/08:30am 20.2 W 6 7 1018.9 - 0.0 - - - - - - -
25/08:00am 18.7 WSW 6 9 1018.4 - 0.0 - - - - - - -
25/07:30am 17.8 SW 6 9 1018.1 - 0.0 - - - - - - -
25/07:00am 17.0 SW 6 7 1017.7 - 0.0 - - - - - - -
25/06:30am 16.6 SW 4 6 1017.3 - 0.0 - - - - - - -
25/06:00am 16.8 WSW 5 6 1016.6 - 0.0 - - - - - - -
25/05:30am 17.2 WSW 4 6 1016.6 - 0.0 - - - - - - -
25/05:00am 17.5 W 6 7 1016.3 - 0.0 - - - - - - -
25/04:30am 17.6 W 5 6 1015.9 - 0.0 - - - - - - -
25/04:00am 18.1 W 6 7 1015.6 - 0.0 - - - - - - -
25/03:30am 18.3 W 5 6 1015.6 - 0.0 - - - - - - -
25/03:00am 18.4 W 5 5 1015.5 - 0.0 - - - - - - -
25/02:30am 18.4 W 5 7 1015.7 - 0.0 - - - - - - -
25/02:00am 19.0 W 6 7 1015.9 - 0.0 - - - - - - -
25/01:30am 19.1 W 5 5 1016.1 - 0.0 - - - - - - -
25/01:00am 19.5 WNW 4 6 1016.2 - 0.0 - - - - - - -
25/12:30am 20.3 NNW 5 6 1016.4 - 0.0 - - - - - - -
25/12:00am 20.4 N 6 9 1016.1 - 0.0 - - - - - - -
 
Date/Time
EST
Temp

°C
Wind Pressure Rain
since 9am
mm
Weather Cloud Vis
km
Sea
Height
m
Swell
Dir
 
Speed
knots
Gust
knots
hPa Trend Height
m
Period
s
Dir
24/11:30pm 20.4 N 6 8 1016.3 - 0.0 - - - - - - -
24/11:00pm 20.6 N 6 8 1016.4 - 0.0 - - - - - - -
24/10:30pm 20.6 N 6 8 1016.5 - 0.0 - - - - - - -
24/10:00pm 20.7 N 6 8 1016.5 - 0.0 - - - - - - -
24/09:30pm 20.8 NNW 6 9 1016.5 - 0.0 - - - - - - -
24/09:00pm 21.1 NNW 6 8 1016.1 - 0.0 - - - - - - -
24/08:30pm 21.4 N 5 9 1016.1 - 0.0 - - - - - - -
24/08:00pm 22.1 N 6 10 1015.7 - 0.0 - - - - - - -
24/07:30pm 22.4 N 6 10 1015.3 - 0.0 - - - - - - -
24/07:00pm 22.6 N 5 7 1015.0 - 0.0 - - - - - - -
24/06:30pm 22.7 N 5 9 1014.7 - 0.0 - - - - - - -
24/06:00pm 22.5 N 5 8 1014.2 - 0.0 - - - - - - -
24/05:30pm 22.8 N 5 8 1014.2 - 0.0 - - - - - - -
24/05:00pm 23.5 N 6 9 1013.7 - 0.0 - - - - - - -
24/04:30pm 25.1 N 5 8 1013.7 - 0.0 - - - - - - -
24/04:00pm 25.5 NNE 6 9 1013.5 - 0.0 - - - - - - -
24/03:30pm 25.3 NNE 6 11 1013.5 - 0.0 - - - - - - -
24/03:00pm 26.2 NNE 5 8 1013.4 F 0.0 Fine Mostly clear 35 1 0.5 8 E
24/02:30pm 25.7 NNE 5 8 1013.6 - 0.0 - - - - - - -
24/02:00pm 25.8 NE 5 7 1013.7 - 0.0 - - - - - - -
24/01:30pm 25.4 ENE 6 7 1013.8 - 0.0 - - - - - - -
24/01:00pm 26.6 NNE 4 7 1014.0 - 0.0 - - - - - - -
24/12:30pm 26.8 NE 3 5 1014.6 - 0.0 - - - - - - -
24/12:00pm 26.1 N 4 6 1015.0 - 0.0 - - - - - - -
24/11:30am 26.1 N 4 7 1015.9 - 0.0 - - - - - - -
24/11:00am 25.4 NNE 3 5 1016.5 - 0.0 - - - - - - -
24/10:30am 25.0 N 4 5 1016.8 - 0.0 - - - - - - -
24/10:00am 24.8 NW 4 6 1017.1 - 0.0 - - - - - - -
24/09:30am 23.4 NNW 4 8 1017.0 - 0.0 - - - - - - -
24/09:00am 22.1 WNW 4 6 1016.6 F 0.0 Fine Mostly clear 35 <0.5 0.5 8 SE
24/08:30am 21.1 W 3 5 1016.8 - 0.0 - - - - - - -
24/08:00am 19.7 WSW 4 5 1016.8 - 0.0 - - - - - - -
24/07:30am 18.8 W 4 5 1016.8 - 0.0 - - - - - - -
24/07:00am 17.8 W 5 7 1016.5 - 0.0 - - - - - - -
24/06:30am 17.5 WNW 6 8 1016.3 - 0.0 - - - - - - -
24/06:00am 17.6 NW 5 8 1016.1 - 0.0 - - - - - - -
24/05:30am 17.4 NW 4 6 1016.0 - 0.0 - - - - - - -
24/05:00am 17.5 NNW 4 6 1015.7 - 0.0 - - - - - - -
24/04:30am 17.3 NNW 4 6 1015.6 - 0.0 - - - - - - -
24/04:00am 17.7 NNW 4 5 1015.4 - 0.0 - - - - - - -
24/03:30am 18.1 NNW 4 5 1015.2 - 0.0 - - - - - - -
24/03:00am 18.3 NNW 5 6 1015.2 - 0.0 - - - - - - -
24/02:30am 19.0 NW 5 9 1015.5 - 0.0 - - - - - - -
24/02:00am 19.2 NNW 6 8 1015.9 - 0.0 - - - - - - -
24/01:30am 18.9 NNW 5 6 1016.1 - 0.0 - - - - - - -
24/01:00am 19.0 NNW 4 6 1016.3 - 0.0 - - - - - - -
24/12:30am 18.8 N 4 5 1016.5 - 0.0 - - - - - - -
24/12:00am 19.0 NNW 4 6 1016.6 - 0.0 - - - - - - -
 
Date/Time
EST
Temp

°C
Wind Pressure Rain
since 9am
mm
Weather Cloud Vis
km
Sea
Height
m
Swell
Dir
 
Speed
knots
Gust
knots
hPa Trend Height
m
Period
s
Dir
23/11:30pm 19.6 NW 4 6 1017.0 - 0.0 - - - - - - -
23/11:00pm 20.4 NNW 6 9 1016.9 - 0.0 - - - - - - -
23/10:30pm 20.8 N 7 10 1016.9 - 0.0 - - - - - - -
23/10:00pm 21.5 N 7 11 1016.9 - 0.0 - - - - - - -
23/09:30pm 21.4 N 6 12 1017.0 - 0.0 - - - - - - -
23/09:00pm 21.9 N 6 9 1016.8 - 0.0 - - - - - - -
23/08:30pm 22.1 N 5 8 1017.0 - 0.0 - - - - - - -
23/08:00pm 22.2 N 5 8 1016.8 - 0.0 - - - - - - -
23/07:30pm 22.4 N 6 9 1016.6 - 0.0 - - - - - - -
23/07:00pm 22.3 N 7 11 1016.6 - 0.0 - - - - - - -
23/06:30pm 22.2 N 5 9 1016.4 - 0.0 - - - - - - -
23/06:00pm 22.4 N 5 8 1015.9 - 0.0 - - - - - - -
23/05:30pm 22.6 N 5 8 1015.9 - 0.0 - - - - - - -
23/05:00pm 23.2 N 5 7 1015.8 - 0.0 - - - - - - -
23/04:30pm 23.9 NNE 8 12 1015.3 - 0.0 - - - - - - -
23/04:00pm 24.6 NNE 8 12 1015.4 - 0.0 - - - - - - -
23/03:30pm 25.0 N 8 12 1015.6 - 0.0 - - - - - - -
23/03:00pm 25.0 NNE 6 10 1015.5 R 0.0 Fine Mostly clear 40 1 0.5 8 SE
23/02:30pm 24.9 NE 7 11 1015.8 - 0.0 - - - - - - -
23/02:00pm 24.8 ENE 6 10 1015.9 - 0.0 - - - - - - -
23/01:30pm 25.2 ENE 5 9 1015.9 - 0.0 - - - - - - -
23/01:00pm 25.6 NE 5 8 1016.1 - 0.0 - - - - - - -
23/12:30pm 26.4 NNE 3 6 1016.6 - 0.0 - - - - - - -
23/12:00pm 26.3 NE 4 7 1016.9 - 0.0 - - - - - - -
23/11:30am 25.2 ENE 4 7 1017.7 - 0.0 - - - - - - -
23/11:00am 27.3 NNW 5 8 1018.2 - 0.0 - - - - - - -
23/10:30am 26.2 NW 5 8 1018.7 - 0.0 - - - - - - -
23/10:00am 25.2 NW 5 8 1019.1 - 0.0 - - - - - - -
23/09:30am 23.4 NW 6 8 1019.3 - 0.0 - - - - - - -
23/09:00am 22.1 W 6 8 1019.3 F 0.0 Fine Mostly clear 35 <0.5 0.5 8 SE
23/08:30am 21.1 W 6 9 1019.7 - 0.0 - - - - - - -
23/08:00am 20.3 W 6 9 1019.6 - 0.0 - - - - - - -
23/07:30am 20.2 NW 7 9 1019.1 - 0.0 - - - - - - -
23/07:00am 19.0 NW 6 8 1019.0 - 0.0 - - - - - - -
23/06:30am 18.5 NW 6 8 1018.7 - 0.0 - - - - - - -
23/06:00am 17.9 WNW 6 9 1018.2 - 0.0 - - - - - - -
23/05:30am 18.4 W 5 7 1018.3 - 0.0 - - - - - - -
23/05:00am 19.0 NW 5 7 1018.0 - 0.0 - - - - - - -
23/04:30am 19.8 NNW 7 11 1017.8 - 0.0 - - - - - - -
23/04:00am 19.9 NNW 8 12 1017.6 - 0.0 - - - - - - -
23/03:30am 19.4 N 7 10 1017.6 - 0.0 - - - - - - -
23/03:00am 19.5 N 6 9 1017.3 - 0.0 - - - - - - -
23/02:30am 19.5 NNW 7 10 1017.8 - 0.0 - - - - - - -
23/02:00am 19.5 N 6 9 1017.9 - 0.0 - - - - - - -
23/01:30am 19.5 N 6 9 1018.1 - 0.0 - - - - - - -
23/01:00am 19.5 N 6 8 1018.3 - 0.0 - - - - - - -
23/12:30am 19.6 N 5 9 1018.4 - 0.0 - - - - - - -
23/12:00am 19.6 N 5 8 1018.2 - 0.0 - - - - - - -
 
Date/Time
EST
Temp

°C
Wind Pressure Rain
since 9am
mm
Weather Cloud Vis
km
Sea
Height
m
Swell
Dir
 
Speed
knots
Gust
knots
hPa Trend Height
m
Period
s
Dir
22/11:30pm 19.3 N 5 7 1018.5 - 0.0 - - - - - - -
22/11:00pm 19.9 NNW 5 8 1018.7 - 0.0 - - - - - - -
22/10:30pm 20.4 N 6 11 1018.8 - 0.0 - - - - - - -
22/10:00pm 21.0 N 8 11 1018.7 - 0.0 - - - - - - -
22/09:30pm 21.0 N 7 11 1018.8 - 0.0 - - - - - - -
22/09:00pm 21.3 N 7 13 1018.6 - 0.0 - - - - - - -
22/08:30pm 21.5 N 8 13 1018.7 - 0.0 - - - - - - -
22/08:00pm 21.8 N 8 14 1018.7 - 0.0 - - - - - - -
22/07:30pm 22.3 N 8 15 1018.6 - 0.0 - - - - - - -
22/07:00pm 22.4 N 8 13 1018.4 - 0.0 - - - - - - -
22/06:30pm 22.6 N 7 14 1018.1 - 0.0 - - - - - - -
22/06:00pm 22.6 N 7 12 1017.7 - 0.0 - - - - - - -
22/05:30pm 22.6 N 7 12 1017.6 - 0.0 - - - - - - -
22/05:00pm 23.2 N 8 14 1017.5 - 0.0 - - - - - - -
22/04:30pm 24.1 N 8 12 1017.5 - 0.0 - - - - - - -
22/04:00pm 24.9 N 9 16 1017.6 - 0.0 - - - - - - -

Other Formats:

Comma delimited format used in spreadsheet applications
http://www.bom.gov.au/fwo/IDN60701/IDN60701.94589.axf

JavaScript Object Notation format (JSON) in row-major order
http://www.bom.gov.au/fwo/IDN60701/IDN60701.94589.json